»·PEaware :: CAX550 KLAS-KSAN

CAX550 :: KLAS-KSAN

FLIGHT INFORMATION

Flight Status: Arrived
Operator:
California Airlines (website)
More flights by this operator :: More flights under this callsign
Pilot: Rodolfo A. (68)
Aircraft: SAAB 2000
(SB20)
More flights by this aircraft type
Origin: KLAS McCarran Intl
United States
Destination: KSAN San Diego Intl-Lindbergh
United States
More flights between these airports :: More routes between these airports
Route: BOACH4 TNP BARET4
File this flight plan on PilotEdge
Remarks: SAAB340 VIRTUAL AIRLINE FLIGHT TEST RNAV APPROACH
Altitude:
(Current/Filed)
30,000ft
Speed:
(Current/Filed)
360kts
Departed: 30-Oct-12 07:49 PM
Arrived: 30-Oct-12 08:41 PM
Distance/Time
Traveled:
225nm/0:51
Distance/Time
To Go:
Arrived

Flight Plot

Page will automatically refresh every two minutes.


Map Options




Map Legend


Flown Route
Filed Route
Departure Airport
Arrival Airport
Navaid (VOR, NDB)
Fix

Horizontal Profiles

Position Reports

Time Latitude Longitude Heading Altitude Ground
Speed
30-Oct-12 19:33 36.079530 -115.127110 90 2186ft 0kts
30-Oct-12 19:34 36.079530 -115.127110 90 2186ft 0kts
30-Oct-12 19:35 36.079530 -115.127110 90 2186ft 0kts
30-Oct-12 19:36 36.079530 -115.127110 90 2186ft 0kts
30-Oct-12 19:37 36.079530 -115.127110 90 2186ft 0kts
30-Oct-12 19:38 36.079530 -115.127110 90 2186ft 0kts
30-Oct-12 19:39 36.079530 -115.127110 90 2186ft 0kts
30-Oct-12 19:40 36.079530 -115.127110 90 2186ft 0kts
30-Oct-12 19:41 36.079530 -115.127110 90 2186ft 0kts
30-Oct-12 19:42 36.079530 -115.127110 90 2186ft 0kts
30-Oct-12 19:43 36.079530 -115.127110 90 2186ft 0kts
30-Oct-12 19:44 36.079530 -115.127110 90 2186ft 0kts
30-Oct-12 19:45 36.079273 -115.126109 156 2186ft 9kts
30-Oct-12 19:46 36.077531 -115.124196 90 2186ft 11kts
30-Oct-12 19:47 36.077401 -115.121528 131 2186ft 1kts
30-Oct-12 19:48 36.076423 -115.130150 270 2187ft 109kts
30-Oct-12 19:49 36.076812 -115.181689 268 3401ft 188kts
30-Oct-12 19:50 36.065674 -115.251971 215 4990ft 244kts
30-Oct-12 19:51 35.999675 -115.288365 200 6618ft 274kts
30-Oct-12 19:52 35.924571 -115.307196 185 8504ft 282kts
30-Oct-12 19:53 35.846620 -115.313556 175 10240ft 289kts
30-Oct-12 19:54 35.765478 -115.304711 174 11888ft 296kts
30-Oct-12 19:55 35.682784 -115.295323 175 13409ft 303kts
30-Oct-12 19:56 35.598151 -115.297970 181 14811ft 310kts
30-Oct-12 19:57 35.511473 -115.301405 181 16111ft 316kts
30-Oct-12 19:58 35.423408 -115.304885 181 17308ft 322kts
30-Oct-12 19:59 35.333647 -115.308424 181 18410ft 327kts
30-Oct-12 20:00 35.242077 -115.312027 181 19423ft 332kts
30-Oct-12 20:01 35.149455 -115.315664 181 20346ft 337kts
30-Oct-12 20:02 35.055303 -115.319351 181 21189ft 342kts
30-Oct-12 20:03 34.960199 -115.323068 181 21957ft 346kts
30-Oct-12 20:04 34.863914 -115.326822 181 22656ft 350kts
30-Oct-12 20:05 34.767352 -115.337901 197 23289ft 353kts
30-Oct-12 20:06 34.674498 -115.377659 199 23866ft 356kts
30-Oct-12 20:07 34.581350 -115.418376 199 24386ft 359kts
30-Oct-12 20:08 34.486849 -115.459587 199 24838ft 362kts
30-Oct-12 20:09 34.394920 -115.499580 199 25411ft 361kts
30-Oct-12 20:10 34.306139 -115.552810 220 26047ft 360kts
30-Oct-12 20:11 34.232913 -115.634284 223 26726ft 359kts
30-Oct-12 20:12 34.160297 -115.715902 223 27462ft 358kts
30-Oct-12 20:13 34.078256 -115.779066 195 28248ft 356kts
30-Oct-12 20:14 33.982582 -115.807885 193 29088ft 356kts
30-Oct-12 20:15 33.886909 -115.835929 193 29961ft 354kts
30-Oct-12 20:16 33.792165 -115.863638 193 29978ft 354kts
30-Oct-12 20:17 33.696739 -115.891488 193 28491ft 354kts
30-Oct-12 20:18 33.601343 -115.919256 193 27010ft 356kts
30-Oct-12 20:19 33.510064 -115.958818 225 25491ft 358kts
30-Oct-12 20:20 33.450758 -116.054975 235 24021ft 359kts
30-Oct-12 20:21 33.403505 -116.136883 235 22746ft 350kts
30-Oct-12 20:22 33.348571 -116.231162 233 21242ft 342kts
30-Oct-12 20:23 33.269954 -116.289932 209 19727ft 334kts
30-Oct-12 20:24 33.232624 -116.386587 254 18199ft 326kts
30-Oct-12 20:25 33.186574 -116.472781 216 16682ft 319kts
30-Oct-12 20:26 33.105648 -116.506491 183 15165ft 311kts
30-Oct-12 20:27 33.020742 -116.512907 196 13647ft 304kts
30-Oct-12 20:28 32.944039 -116.551626 204 12156ft 298kts
30-Oct-12 20:29 32.869953 -116.592333 204 10656ft 291kts
30-Oct-12 20:30 32.800133 -116.636718 228 9134ft 285kts
30-Oct-12 20:31 32.758955 -116.712513 242 8572ft 248kts
30-Oct-12 20:32 32.730140 -116.779242 242 7330ft 222kts
30-Oct-12 20:33 32.702821 -116.843988 244 6077ft 218kts
30-Oct-12 20:34 32.679399 -116.909122 250 4579ft 213kts
30-Oct-12 20:35 32.681907 -116.976630 285 3607ft 210kts
30-Oct-12 20:36 32.697652 -117.042766 286 2665ft 207kts
30-Oct-12 20:37 32.711596 -117.100202 285 1640ft 131kts
30-Oct-12 20:38 32.720395 -117.135174 286 982ft 126kts
30-Oct-12 20:39 32.729730 -117.173931 286 159ft 124kts
30-Oct-12 20:40 32.733133 -117.191701 148 22ft 3kts
30-Oct-12 20:41 32.731610 -117.191081 203 22ft 13kts

Navigation Log

Ident Type
Flight plan parsing failed, navigation log unavailable